Time;durP1;ratioP1;P1;durP2;ratioP2;P2;SDS_P1;SDS_P2;PMS_P1;PMS_P2;Temp;Humidity;BMP_temperature;BMP_pressure;BME280_temperature;BME280_humidity;BME280_pressure;Samples;Min_cycle;Max_cycle;Signal;HPM_P1;HPM_P2
2022/12/24 00:01:01;;;;;;;142.70;59.78;;;;;;;2.07;79.64;99591.41;5070286;28;20021;-42
2022/12/24 00:03:26;;;;;;;139.85;64.10;;;;;;;2.35;79.76;99598.16;5069944;28;20486;-42
2022/12/24 00:05:52;;;;;;;136.85;62.80;;;;;;;2.58;81.15;99600.28;5069676;28;20427;-42
2022/12/24 00:08:17;;;;;;;138.93;65.80;;;;;;;2.99;80.30;99592.63;5069791;28;20020;-42
2022/12/24 00:10:44;;;;;;;137.77;63.33;;;;;;;3.38;78.30;99586.00;5068308;28;20453;-42
2022/12/24 00:13:09;;;;;;;130.25;63.33;;;;;;;3.23;81.65;99602.38;5069895;28;20063;-43
2022/12/24 00:15:34;;;;;;;130.80;58.95;;;;;;;2.80;80.67;99605.97;5069694;28;20025;-42
2022/12/24 00:18:00;;;;;;;119.65;53.92;;;;;;;2.26;82.24;99606.97;5067017;28;20473;-42
2022/12/24 00:20:25;;;;;;;112.85;52.15;;;;;;;1.78;80.98;99602.97;5069613;28;20021;-42
2022/12/24 00:22:51;;;;;;;114.13;54.65;;;;;;;1.88;83.09;99608.13;5069693;28;20021;-42
2022/12/24 00:25:16;;;;;;;114.55;54.00;;;;;;;2.48;82.23;99608.28;5069438;28;20121;-42
2022/12/24 00:27:41;;;;;;;115.45;53.13;;;;;;;2.17;83.40;99607.06;5069636;28;20024;-42
2022/12/24 00:30:07;;;;;;;102.57;47.40;;;;;;;1.61;84.02;99599.38;5069253;28;20528;-41
2022/12/24 00:32:33;;;;;;;115.13;50.13;;;;;;;2.40;83.64;99605.59;5069203;28;20024;-42
2022/12/24 00:34:58;;;;;;;88.60;43.13;;;;;;;2.17;85.20;99604.44;5069395;28;20024;-42
2022/12/24 00:37:24;;;;;;;74.18;37.45;;;;;;;1.61;83.51;99595.91;5068892;28;20334;-42
2022/12/24 00:39:49;;;;;;;77.55;37.72;;;;;;;1.89;85.84;99601.94;5069120;28;20024;-42
2022/12/24 00:42:15;;;;;;;68.40;35.58;;;;;;;2.24;85.40;99608.91;5069307;28;20054;-40
2022/12/24 00:44:40;;;;;;;65.22;34.60;;;;;;;2.03;84.46;99608.44;5068964;28;20078;-42
2022/12/24 00:47:05;;;;;;;70.30;35.38;;;;;;;1.50;84.78;99603.00;5068977;28;20025;-42
2022/12/24 00:49:31;;;;;;;79.15;40.83;;;;;;;1.45;86.85;99602.66;5068879;28;20023;-41
2022/12/24 00:51:56;;;;;;;69.85;37.58;;;;;;;1.61;88.33;99598.53;5068941;28;20389;-42
2022/12/24 00:54:21;;;;;;;76.25;36.90;;;;;;;2.43;84.47;99605.28;5069855;28;20025;-42
2022/12/24 00:56:47;;;;;;;84.35;40.45;;;;;;;1.77;86.81;99596.06;5069565;28;20235;-42
2022/12/24 00:59:12;;;;;;;70.43;37.33;;;;;;;1.44;82.50;99594.94;5069389;28;20039;-43
2022/12/24 01:01:38;;;;;;;78.53;38.05;;;;;;;0.88;83.89;99587.09;5069516;28;20147;-43
2022/12/24 01:06:47;;;;;;;77.55;38.25;;;;;;;0.76;88.08;99590.84;5069861;28;20036;-42
2022/12/24 01:09:13;;;;;;;76.65;36.58;;;;;;;0.79;89.89;99593.19;5069495;28;20028;-42
2022/12/24 01:11:38;;;;;;;76.57;37.67;;;;;;;0.87;89.75;99587.22;5069767;28;20029;-42
2022/12/24 01:14:04;;;;;;;88.70;42.15;;;;;;;0.74;89.52;99592.78;5069993;28;20476;-42
2022/12/24 01:16:29;;;;;;;76.72;38.17;;;;;;;0.56;89.52;99593.53;5069566;28;20084;-42
2022/12/24 01:18:55;;;;;;;70.53;34.90;;;;;;;0.43;87.67;99577.31;5069587;28;20493;-42
2022/12/24 01:21:20;;;;;;;85.15;42.45;;;;;;;0.55;87.05;99575.34;5069520;28;20026;-42
2022/12/24 01:23:46;;;;;;;67.82;34.83;;;;;;;0.35;88.76;99572.78;5068989;28;20074;-42
2022/12/24 01:26:11;;;;;;;68.70;33.88;;;;;;;0.36;89.45;99573.63;5068838;28;20031;-42
2022/12/24 01:28:37;;;;;;;70.43;36.70;;;;;;;0.62;88.94;99565.16;5069981;28;20025;-42
2022/12/24 01:31:13;;;;;;;72.20;33.70;;;;;;;0.58;88.88;99567.22;5072161;28;20028;-42
2022/12/24 01:33:39;;;;;;;73.20;34.45;;;;;;;0.58;89.71;99567.22;5072666;28;20028;-42
2022/12/24 01:36:05;;;;;;;65.55;32.22;;;;;;;0.54;88.20;99566.69;5072380;28;20040;-42
2022/12/24 01:38:30;;;;;;;63.70;32.80;;;;;;;0.58;87.08;99569.84;5072340;28;20551;-42
2022/12/24 01:43:39;;;;;;;65.53;32.15;;;;;;;0.76;86.14;99565.50;5072490;28;20039;-42
2022/12/24 01:46:14;;;;;;;76.25;36.80;;;;;;;1.04;85.96;99568.09;5072127;28;20032;-42
2022/12/24 01:48:48;;;;;;;60.63;31.13;;;;;;;1.14;87.39;99562.81;5072271;28;20056;-42
2022/12/24 01:51:28;;;;;;;63.33;32.55;;;;;;;1.06;86.26;99560.94;5071986;28;20454;-42
2022/12/24 01:54:01;;;;;;;60.28;30.17;;;;;;;0.76;86.79;99562.03;5072218;28;20028;-42
2022/12/24 01:56:28;;;;;;;60.95;30.92;;;;;;;0.86;83.13;99572.50;5072268;28;20028;-42
2022/12/24 01:58:59;;;;;;;61.35;30.08;;;;;;;1.12;81.27;99564.75;5072048;28;20081;-42
2022/12/24 02:01:25;;;;;;;63.85;33.17;;;;;;;1.43;81.82;99573.13;5072250;28;20036;-42
2022/12/24 02:03:50;;;;;;;68.05;33.50;;;;;;;1.90;79.40;99570.25;5072719;28;20021;-42
2022/12/24 02:06:19;;;;;;;60.65;32.40;;;;;;;1.89;77.47;99557.31;5072398;28;20032;-42
2022/12/24 02:08:45;;;;;;;69.72;35.88;;;;;;;2.01;78.11;99558.69;5072552;28;20052;-42
2022/12/24 02:11:29;;;;;;;68.88;32.35;;;;;;;1.82;77.52;99566.75;5072629;28;20488;-42
2022/12/24 02:13:58;;;;;;;63.22;31.55;;;;;;;1.73;75.97;99565.84;5072757;28;20373;-42
2022/12/24 02:16:52;;;;;;;57.42;29.48;;;;;;;1.44;77.98;99568.69;5072482;28;20024;-42
2022/12/24 02:19:54;;;;;;;63.10;31.60;;;;;;;1.84;77.73;99556.94;5072312;28;20070;-42
2022/12/24 02:22:50;;;;;;;67.18;31.58;;;;;;;1.68;75.97;99558.44;5072500;28;20187;-42
2022/12/24 02:25:40;;;;;;;59.33;29.25;;;;;;;1.59;74.00;99561.97;5072374;28;20612;-42
2022/12/24 02:28:50;;;;;;;57.10;28.30;;;;;;;1.16;74.54;99559.09;5072354;28;20029;-42
2022/12/24 02:31:18;;;;;;;57.55;29.33;;;;;;;0.59;75.86;99561.00;5039062;28;20044;-42
2022/12/24 02:33:53;;;;;;;52.85;27.33;;;;;;;0.49;78.51;99557.59;5072505;28;20094;-42
2022/12/24 02:36:32;;;;;;;62.40;30.08;;;;;;;0.66;78.71;99564.69;5072334;28;20029;-42
2022/12/24 02:39:09;;;;;;;61.78;30.23;;;;;;;0.60;81.09;99565.28;5072119;28;20078;-42
2022/12/24 02:44:27;;;;;;;70.03;32.90;;;;;;;0.98;81.98;99573.94;5072487;28;20032;-42
2022/12/24 02:46:54;;;;;;;76.15;35.60;;;;;;;1.73;80.79;99576.34;5071825;28;20043;-42
2022/12/24 02:49:19;;;;;;;69.55;34.60;;;;;;;2.28;79.52;99577.94;5071894;28;20465;-41
2022/12/24 02:51:45;;;;;;;72.47;35.67;;;;;;;2.60;80.23;99587.81;5071447;28;20033;-42
2022/12/24 02:54:11;;;;;;;64.95;32.30;;;;;;;1.95;83.78;99581.13;5071618;28;20025;-42
2022/12/24 02:57:13;;;;;;;64.25;32.42;;;;;;;1.69;83.56;99591.56;5071628;28;20028;-42
2022/12/24 03:00:04;;;;;;;58.70;28.27;;;;;;;0.96;82.01;99591.59;5071733;28;20028;-42
2022/12/24 03:02:29;;;;;;;59.50;29.80;;;;;;;0.38;85.71;99588.22;5071507;28;20032;-42
2022/12/24 03:05:19;;;;;;;60.03;29.38;;;;;;;1.27;84.45;99584.25;5071162;28;20021;-42
2022/12/24 03:07:54;;;;;;;63.38;29.30;;;;;;;1.13;88.03;99592.63;5071134;28;20039;-43
2022/12/24 03:10:22;;;;;;;57.75;28.88;;;;;;;0.76;84.82;99581.22;5071801;28;20121;-43
2022/12/24 03:12:53;;;;;;;64.32;31.10;;;;;;;0.97;86.61;99577.53;5071742;28;20034;-43
2022/12/24 03:15:22;;;;;;;60.95;30.30;;;;;;;1.39;86.71;99574.41;5071609;28;20050;-43
2022/12/24 03:17:51;;;;;;;64.63;30.00;;;;;;;1.13;86.56;99567.22;5071292;28;20131;-43
2022/12/24 03:20:32;;;;;;;61.38;30.80;;;;;;;0.53;86.75;99565.03;5071581;28;20036;-42
2022/12/24 03:22:58;;;;;;;55.28;28.17;;;;;;;0.39;88.75;99560.25;5071462;28;20051;-42
2022/12/24 03:25:26;;;;;;;60.40;31.00;;;;;;;0.56;90.81;99553.44;5070057;28;20020;-43
2022/12/24 03:27:52;;;;;;;53.10;26.50;;;;;;;0.32;91.91;99562.59;5071323;28;20082;-43
2022/12/24 03:30:19;;;;;;;49.85;25.63;;;;;;;0.47;92.35;99556.91;5071217;28;20024;-43
2022/12/24 03:32:45;;;;;;;44.60;22.77;;;;;;;0.35;92.14;99551.84;5071227;28;20028;-41
2022/12/24 03:35:11;;;;;;;39.50;20.73;;;;;;;0.32;90.62;99548.69;5071192;28;20043;-42
2022/12/24 03:37:36;;;;;;;39.20;19.50;;;;;;;0.15;89.57;99560.72;5071177;28;20600;-42
2022/12/24 03:40:04;;;;;;;40.72;21.33;;;;;;;0.04;89.73;99556.47;5071052;28;20077;-41
2022/12/24 03:42:29;;;;;;;42.03;20.30;;;;;;;0.04;89.38;99555.63;5071021;28;20066;-42
2022/12/24 03:44:55;;;;;;;39.20;20.50;;;;;;;0.07;89.01;99563.22;5070819;28;20013;-41
2022/12/24 03:47:20;;;;;;;37.92;18.85;;;;;;;-0.02;89.00;99557.03;5070906;28;20032;-42
2022/12/24 03:49:45;;;;;;;42.85;22.23;;;;;;;-0.03;88.48;99565.84;5070848;28;20035;-42
2022/12/24 03:52:11;;;;;;;50.65;24.75;;;;;;;0.12;86.05;99561.81;5070665;28;20468;-42
2022/12/24 03:54:36;;;;;;;45.88;23.88;;;;;;;0.05;86.13;99552.06;5071137;28;20036;-41
2022/12/24 03:57:02;;;;;;;49.22;25.05;;;;;;;-0.03;87.23;99550.16;5070614;28;20468;-41
2022/12/24 03:59:27;;;;;;;54.88;27.65;;;;;;;0.02;87.33;99534.03;5070763;28;20021;-42
2022/12/24 04:01:52;;;;;;;60.20;30.95;;;;;;;0.28;85.72;99540.28;5070312;28;20051;-42
2022/12/24 04:04:18;;;;;;;66.80;31.60;;;;;;;0.01;85.91;99542.84;5070690;28;20021;-41
2022/12/24 04:06:43;;;;;;;62.53;29.40;;;;;;;0.07;87.10;99548.34;5070940;28;20158;-42
2022/12/24 04:09:09;;;;;;;51.78;26.67;;;;;;;0.06;84.64;99553.69;5070710;28;20421;-42
2022/12/24 04:11:34;;;;;;;64.55;29.70;;;;;;;0.26;86.44;99552.69;5070447;28;20532;-42
2022/12/24 04:14:00;;;;;;;55.60;26.33;;;;;;;0.10;87.40;99547.25;5070757;28;20034;-42
2022/12/24 04:16:25;;;;;;;48.60;24.77;;;;;;;0.19;88.66;99556.84;5070459;28;20028;-42
2022/12/24 04:18:51;;;;;;;51.25;27.13;;;;;;;0.62;85.70;99560.72;5070135;28;20049;-42
2022/12/24 04:21:16;;;;;;;55.03;27.58;;;;;;;0.85;82.85;99553.31;5070422;28;20111;-42
2022/12/24 04:23:43;;;;;;;54.63;27.55;;;;;;;0.98;82.10;99558.22;5070470;28;20127;-42
2022/12/24 04:26:10;;;;;;;58.55;27.75;;;;;;;1.01;81.10;99557.09;5070513;28;20020;-42
2022/12/24 04:28:37;;;;;;;49.17;25.73;;;;;;;1.26;78.42;99560.84;5069566;28;20103;-42
2022/12/24 04:31:06;;;;;;;53.95;25.92;;;;;;;1.15;78.20;99560.03;5070031;28;20414;-42
2022/12/24 04:33:31;;;;;;;57.28;26.70;;;;;;;1.20;78.63;99564.88;5070334;28;20027;-42
2022/12/24 04:35:58;;;;;;;64.70;30.95;;;;;;;0.81;81.06;99559.81;5070239;28;20101;-42
2022/12/24 04:38:24;;;;;;;65.32;34.95;;;;;;;1.08;80.56;99563.41;5070307;28;20099;-42
2022/12/24 04:41:09;;;;;;;68.00;33.42;;;;;;;1.34;79.48;99569.59;5069942;28;20437;-42
2022/12/24 04:43:34;;;;;;;56.45;28.63;;;;;;;1.10;79.67;99559.66;5069638;28;20032;-42
2022/12/24 04:46:16;;;;;;;60.28;30.15;;;;;;;0.72;83.44;99565.91;5069919;28;20571;-42
2022/12/24 04:48:43;;;;;;;59.67;29.58;;;;;;;1.06;79.77;99573.22;5069838;28;20024;-42
2022/12/24 04:51:09;;;;;;;55.95;28.35;;;;;;;0.94;77.93;99567.34;5069685;28;20123;-42
2022/12/24 04:53:35;;;;;;;59.63;28.63;;;;;;;1.20;76.74;99567.50;5070253;28;20066;-42
2022/12/24 04:56:01;;;;;;;56.63;29.38;;;;;;;0.75;81.92;99563.03;5070241;28;20044;-42
2022/12/24 04:58:28;;;;;;;54.70;27.73;;;;;;;1.14;78.42;99562.81;5069960;28;20166;-41
2022/12/24 05:00:54;;;;;;;60.83;31.52;;;;;;;1.59;82.03;99564.59;5069934;28;20021;-41
2022/12/24 05:03:19;;;;;;;64.43;32.92;;;;;;;2.09;80.82;99581.56;5071072;28;20604;-42
2022/12/24 05:05:45;;;;;;;66.78;33.97;;;;;;;2.24;79.44;99577.41;5073713;28;20129;-41
2022/12/24 05:08:11;;;;;;;77.07;35.30;;;;;;;2.34;82.12;99565.03;5073825;28;20028;-42
2022/12/24 05:10:36;;;;;;;62.90;31.17;;;;;;;1.60;82.17;99574.13;5073705;28;20023;-42
2022/12/24 05:13:02;;;;;;;64.78;32.17;;;;;;;1.28;81.56;99569.38;5074045;28;20020;-42
2022/12/24 05:15:27;;;;;;;66.90;32.67;;;;;;;0.52;80.64;99568.63;5074248;28;20449;-41
2022/12/24 05:17:53;;;;;;;74.85;34.97;;;;;;;0.19;84.02;99572.53;5073779;28;20443;-41
2022/12/24 05:20:18;;;;;;;65.68;34.25;;;;;;;1.28;81.80;99572.00;5073837;28;20388;-41
2022/12/24 05:28:18;;;;;;;74.30;36.92;;;;;;;0.97;84.11;99573.13;5073681;28;20038;-41
2022/12/24 05:30:43;;;;;;;74.15;37.08;;;;;;;1.14;86.41;99574.16;5073565;28;20103;-42
2022/12/24 05:33:08;;;;;;;70.47;35.85;;;;;;;0.90;82.70;99566.81;5073274;28;20093;-42
2022/12/24 05:35:34;;;;;;;120.57;47.47;;;;;;;0.90;85.06;99582.53;5071838;28;20453;-42
2022/12/24 05:37:59;;;;;;;140.20;54.28;;;;;;;1.59;82.82;99582.13;5073275;28;20024;-42
2022/12/24 05:40:25;;;;;;;139.32;59.03;;;;;;;1.48;84.62;99576.13;5073288;28;20030;-42
2022/12/24 05:42:50;;;;;;;146.75;59.38;;;;;;;1.07;83.18;99580.94;5075179;28;20203;-42
2022/12/24 05:45:16;;;;;;;84.22;38.65;;;;;;;0.65;85.54;99577.94;5073074;28;20029;-43
2022/12/24 05:47:41;;;;;;;68.53;33.28;;;;;;;0.58;87.77;99575.06;5073146;28;20108;-43
2022/12/24 05:50:07;;;;;;;70.20;34.60;;;;;;;0.45;89.31;99574.56;5073001;28;20111;-42
2022/12/24 05:52:33;;;;;;;74.22;36.20;;;;;;;0.37;89.81;99581.34;5072408;28;20100;-41
2022/12/24 05:54:58;;;;;;;79.28;34.05;;;;;;;0.34;88.24;99578.16;5073677;28;20108;-43
2022/12/24 05:57:24;;;;;;;68.30;33.40;;;;;;;0.30;88.55;99584.66;5073094;28;20059;-43
2022/12/24 05:59:49;;;;;;;67.93;31.83;;;;;;;0.14;86.66;99598.34;5073447;28;20052;-42
2022/12/24 06:02:15;;;;;;;66.20;31.33;;;;;;;-0.09;86.02;99606.47;5073094;28;20115;-42
2022/12/24 06:04:40;;;;;;;88.50;35.63;;;;;;;-0.16;86.81;99591.47;5072781;28;20111;-43
2022/12/24 06:07:05;;;;;;;68.25;32.35;;;;;;;0.39;87.81;99595.09;5072865;28;20174;-43
2022/12/24 06:09:31;;;;;;;65.85;34.00;;;;;;;0.80;88.39;99596.63;5072609;28;20101;-43
2022/12/24 06:11:56;;;;;;;64.00;30.90;;;;;;;1.02;90.45;99606.75;5069478;28;20364;-43
2022/12/24 06:14:22;;;;;;;56.45;28.42;;;;;;;0.92;89.51;99617.28;5059480;28;20451;-42
2022/12/24 06:16:47;;;;;;;52.67;28.15;;;;;;;1.11;89.42;99612.94;5052628;28;20493;-42
2022/12/24 06:19:12;;;;;;;60.85;30.65;;;;;;;1.22;90.53;99609.25;5052510;28;20040;-42
2022/12/24 06:21:38;;;;;;;75.25;36.47;;;;;;;1.38;89.34;99612.06;5052630;28;20514;-42
2022/12/24 06:24:04;;;;;;;63.53;31.30;;;;;;;2.50;94.59;99616.81;5052281;28;20029;-43
2022/12/24 06:26:29;;;;;;;58.83;28.65;;;;;;;2.25;84.65;99609.75;5051976;28;20025;-43
2022/12/24 06:28:54;;;;;;;84.72;38.60;;;;;;;2.37;83.42;99621.66;5052112;28;20040;-44
2022/12/24 06:31:21;;;;;;;79.10;34.60;;;;;;;2.63;82.74;99615.59;5060139;28;20032;-43
2022/12/24 06:33:47;;;;;;;53.38;28.55;;;;;;;2.77;84.52;99619.44;5072395;28;20028;-42
2022/12/24 06:36:16;;;;;;;65.45;31.13;;;;;;;2.94;81.04;99610.66;5072061;28;20023;-44
2022/12/24 06:38:41;;;;;;;58.17;28.35;;;;;;;3.21;79.25;99616.69;5081927;28;20556;-43
2022/12/24 06:41:07;;;;;;;54.13;26.70;;;;;;;3.28;79.40;99626.41;5087931;28;20103;-43
2022/12/24 06:43:33;;;;;;;66.10;32.88;;;;;;;3.53;77.61;99622.03;5056095;28;20147;-42
2022/12/24 06:45:59;;;;;;;59.22;29.35;;;;;;;3.65;77.47;99625.19;5061865;28;20142;-42
2022/12/24 06:48:24;;;;;;;54.53;25.48;;;;;;;3.94;76.64;99623.94;5051494;28;20049;-42
2022/12/24 06:50:50;;;;;;;54.95;28.98;;;;;;;4.18;75.96;99627.56;5051252;28;20678;-42
2022/12/24 06:53:15;;;;;;;65.68;32.65;;;;;;;4.18;75.02;99620.47;5069910;28;20111;-42
2022/12/24 06:55:41;;;;;;;58.67;32.67;;;;;;;4.05;75.29;99614.88;5066811;28;20082;-42
2022/12/24 06:58:06;;;;;;;68.28;33.80;;;;;;;4.24;74.26;99617.16;5071736;28;20099;-42
2022/12/24 07:00:32;;;;;;;72.07;32.75;;;;;;;4.31;75.07;99612.06;5071413;28;20509;-42
2022/12/24 07:02:58;;;;;;;59.88;32.92;;;;;;;4.79;73.37;99618.25;5071615;28;20021;-42
2022/12/24 07:05:24;;;;;;;58.45;30.95;;;;;;;4.81;73.61;99612.81;5071335;28;20425;-43
2022/12/24 07:07:49;;;;;;;66.82;32.72;;;;;;;4.93;78.41;99603.56;5071529;28;20683;-43
2022/12/24 07:10:16;;;;;;;61.20;30.77;;;;;;;5.09;75.38;99613.22;5071475;28;20028;-43
2022/12/24 07:12:42;;;;;;;65.93;35.63;;;;;;;5.31;75.17;99611.63;5071292;28;20400;-43
2022/12/24 07:15:08;;;;;;;73.65;35.25;;;;;;;5.37;75.70;99613.59;5071469;28;20028;-43
2022/12/24 07:17:34;;;;;;;61.03;31.25;;;;;;;7.27;71.18;99618.88;5070212;28;20039;-43
2022/12/24 07:19:59;;;;;;;67.75;34.83;;;;;;;6.86;71.70;99619.38;5064768;28;20020;-41
2022/12/24 07:22:25;;;;;;;70.28;37.28;;;;;;;6.83;69.13;99628.50;5070905;28;20016;-48
2022/12/24 07:24:50;;;;;;;77.10;38.10;;;;;;;6.51;70.74;99620.88;5070166;28;20119;-36
2022/12/24 07:27:16;;;;;;;70.68;37.00;;;;;;;7.77;68.88;99617.22;5070299;28;20031;-36
2022/12/24 07:29:42;;;;;;;65.90;36.72;;;;;;;7.12;69.56;99618.06;5070445;28;20077;-36
2022/12/24 07:32:07;;;;;;;58.83;30.27;;;;;;;7.09;69.49;99618.44;5069668;28;20464;-36
2022/12/24 07:34:33;;;;;;;60.30;28.52;;;;;;;7.12;69.02;99623.34;5070002;28;20107;-35
2022/12/24 07:36:58;;;;;;;45.78;26.05;;;;;;;7.54;66.66;99616.53;5069374;28;20596;-36
2022/12/24 07:39:24;;;;;;;46.28;26.85;;;;;;;8.17;64.52;99617.59;5069379;28;20540;-36
2022/12/24 07:41:50;;;;;;;47.85;27.00;;;;;;;8.54;62.77;99623.59;5069560;28;20031;-42
2022/12/24 07:44:16;;;;;;;50.53;27.98;;;;;;;9.03;61.35;99637.81;5069173;28;20085;-41
2022/12/24 07:46:42;;;;;;;50.85;28.65;;;;;;;8.88;61.32;99623.84;5068738;28;20032;-42
2022/12/24 07:49:08;;;;;;;56.00;28.60;;;;;;;8.83;63.41;99626.25;5068603;28;20484;-43
2022/12/24 07:51:33;;;;;;;72.80;41.97;;;;;;;9.07;62.22;99636.41;5068713;28;20031;-43
2022/12/24 07:54:00;;;;;;;46.97;27.33;;;;;;;9.74;59.63;99634.00;5069268;28;20476;-42
2022/12/24 07:56:26;;;;;;;47.03;26.92;;;;;;;9.73;59.82;99635.84;5069396;28;20086;-41
2022/12/24 07:58:51;;;;;;;44.60;26.58;;;;;;;9.80;59.00;99638.50;5069561;28;20024;-42
2022/12/24 08:01:17;;;;;;;44.80;26.65;;;;;;;9.68;58.95;99642.78;5069509;28;20029;-42
2022/12/24 08:03:43;;;;;;;46.53;26.35;;;;;;;9.03;60.43;99650.25;5069700;28;20085;-42
2022/12/24 08:06:09;;;;;;;46.40;26.92;;;;;;;9.27;60.01;99655.09;5069232;28;20435;-42
2022/12/24 08:08:35;;;;;;;55.90;29.38;;;;;;;9.48;59.56;99650.66;5069152;28;20135;-42
2022/12/24 08:11:02;;;;;;;54.75;29.30;;;;;;;9.20;59.86;99654.25;5069226;28;20028;-42
2022/12/24 08:13:28;;;;;;;45.97;28.23;;;;;;;9.00;60.72;99660.25;5068003;28;20404;-42
2022/12/24 08:15:53;;;;;;;48.00;26.92;;;;;;;9.01;61.37;99653.13;5069944;28;20021;-43
2022/12/24 08:18:19;;;;;;;49.85;27.30;;;;;;;9.10;60.86;99659.91;5069228;28;20445;-42
2022/12/24 08:20:44;;;;;;;44.50;27.40;;;;;;;9.28;60.31;99656.72;5068694;28;20032;-42
2022/12/24 08:23:09;;;;;;;43.97;27.60;;;;;;;8.78;61.82;99664.81;5069291;28;20035;-43
2022/12/24 08:25:35;;;;;;;48.30;27.55;;;;;;;8.72;61.94;99670.03;5069056;28;20021;-43
2022/12/24 08:28:01;;;;;;;44.75;27.60;;;;;;;8.76;62.07;99655.41;5068766;28;20025;-42
2022/12/24 08:30:27;;;;;;;52.03;30.20;;;;;;;8.74;62.39;99658.25;5068880;28;20086;-42
2022/12/24 08:32:53;;;;;;;65.68;35.35;;;;;;;8.53;62.90;99651.16;5067424;28;20090;-42
2022/12/24 08:35:19;;;;;;;62.67;33.72;;;;;;;8.79;62.66;99662.97;5069512;28;20036;-43
2022/12/24 08:37:44;;;;;;;60.65;34.40;;;;;;;8.89;63.29;99654.66;5068418;28;20040;-43
2022/12/24 08:40:10;;;;;;;61.88;33.80;;;;;;;9.17;61.89;99647.47;5069053;28;20617;-43
2022/12/24 08:42:36;;;;;;;60.40;34.13;;;;;;;8.95;62.65;99656.56;5068740;28;20057;-42
2022/12/24 08:45:01;;;;;;;53.83;30.33;;;;;;;9.16;61.08;99653.00;5068580;28;20020;-43
2022/12/24 08:47:27;;;;;;;52.38;28.83;;;;;;;9.20;60.56;99647.09;5068585;28;20028;-42
2022/12/24 08:49:52;;;;;;;72.22;39.95;;;;;;;9.07;61.74;99652.31;5068627;28;20457;-43
2022/12/24 08:52:17;;;;;;;58.03;32.33;;;;;;;9.18;60.65;99648.31;5068428;28;20111;-43
2022/12/24 08:54:43;;;;;;;67.07;36.85;;;;;;;9.18;61.24;99648.31;5069271;28;20028;-42
2022/12/24 08:57:08;;;;;;;50.83;31.00;;;;;;;9.14;60.87;99639.91;5068910;28;20028;-43
2022/12/24 08:59:34;;;;;;;48.90;29.15;;;;;;;9.12;61.48;99630.47;5069062;28;20044;-43
2022/12/24 09:02:00;;;;;;;44.70;26.45;;;;;;;9.31;60.94;99631.59;5068861;28;20496;-43
2022/12/24 09:04:26;;;;;;;48.47;27.38;;;;;;;9.32;60.06;99623.44;5068800;28;20025;-42
2022/12/24 09:06:51;;;;;;;65.53;33.78;;;;;;;9.34;60.41;99632.03;5068308;28;20033;-42
2022/12/24 09:09:16;;;;;;;57.85;31.30;;;;;;;9.59;59.27;99634.16;5068906;28;20040;-42
2022/12/24 09:11:42;;;;;;;70.35;41.25;;;;;;;9.48;59.57;99630.25;5068544;28;20028;-43
2022/12/24 09:14:07;;;;;;;100.30;51.65;;;;;;;9.34;60.22;99631.22;5068963;28;20024;-43
2022/12/24 09:16:33;;;;;;;48.00;27.25;;;;;;;9.33;59.50;99629.59;5068606;28;20500;-42
2022/12/24 09:18:58;;;;;;;53.03;27.75;;;;;;;9.56;59.04;99621.28;5068479;28;20139;-42
2022/12/24 09:21:24;;;;;;;50.60;28.40;;;;;;;9.34;59.93;99632.03;5068429;28;20030;-43
2022/12/24 09:23:49;;;;;;;46.83;27.60;;;;;;;9.51;60.25;99629.03;5068212;28;20028;-42
2022/12/24 09:26:15;;;;;;;47.78;28.45;;;;;;;9.71;59.35;99618.44;5066688;28;20039;-43
2022/12/24 09:28:40;;;;;;;50.03;28.23;;;;;;;9.65;59.99;99617.41;5068828;28;20028;-42
2022/12/24 09:31:06;;;;;;;46.85;27.63;;;;;;;9.55;59.93;99612.47;5069130;28;20052;-42
2022/12/24 09:33:34;;;;;;;49.47;27.52;;;;;;;9.79;58.70;99612.97;5069412;28;20526;-42
2022/12/24 09:36:01;;;;;;;47.20;28.38;;;;;;;9.84;59.09;99601.72;5068873;28;20361;-43
2022/12/24 09:38:26;;;;;;;49.40;29.95;;;;;;;9.69;58.05;99608.03;5068469;28;20064;-43
2022/12/24 09:40:53;;;;;;;46.50;27.02;;;;;;;10.44;59.10;99613.25;5068998;28;20420;-42
2022/12/24 09:43:19;;;;;;;43.53;26.73;;;;;;;10.42;56.87;99601.19;5069158;28;20107;-41
2022/12/24 09:45:56;;;;;;;46.75;27.48;;;;;;;10.23;57.84;99597.47;5068996;28;20154;-43
2022/12/24 09:48:28;;;;;;;44.85;26.70;;;;;;;10.16;57.11;99587.63;5068863;28;20520;-41
2022/12/24 09:51:30;;;;;;;49.40;26.67;;;;;;;10.07;57.84;99596.84;5072067;28;20115;-43
2022/12/24 09:54:06;;;;;;;49.03;28.88;;;;;;;10.29;57.02;99594.81;5038546;28;20048;-42
2022/12/24 09:56:42;;;;;;;47.20;26.80;;;;;;;10.15;56.76;99582.53;5051061;28;20605;-42
2022/12/24 09:59:15;;;;;;;52.33;29.08;;;;;;;10.36;55.93;99579.69;5051843;28;20021;-42
2022/12/24 10:01:40;;;;;;;49.83;27.08;;;;;;;10.02;57.65;99580.69;5052053;28;20055;-42
2022/12/24 10:04:12;;;;;;;45.85;26.55;;;;;;;10.35;56.83;99577.22;5051813;28;20068;-42
2022/12/24 10:07:15;;;;;;;48.45;26.15;;;;;;;11.53;69.58;99582.38;5052208;28;20847;-36
2022/12/24 10:09:55;;;;;;;40.75;24.85;;;;;;;11.48;61.73;99573.41;5052312;28;20100;-36
2022/12/24 10:12:32;;;;;;;43.33;26.55;;;;;;;11.38;55.98;99573.06;5051874;28;20059;-36
2022/12/24 10:15:29;;;;;;;46.88;26.77;;;;;;;11.19;55.32;99569.44;5052559;28;20043;-36
2022/12/24 10:18:04;;;;;;;54.35;29.95;;;;;;;10.75;55.84;99563.84;5051898;28;20480;-36
2022/12/24 10:20:43;;;;;;;44.88;26.90;;;;;;;10.67;56.14;99564.91;5051805;28;20094;-42
2022/12/24 10:23:35;;;;;;;48.38;27.55;;;;;;;11.73;58.06;99555.63;5051451;28;20029;-48
2022/12/24 10:26:26;;;;;;;46.58;26.73;;;;;;;11.53;54.34;99557.59;5051293;28;20036;-48
2022/12/24 10:29:13;;;;;;;47.78;28.42;;;;;;;11.09;55.04;99544.06;5045988;28;20044;-43
2022/12/24 10:31:49;;;;;;;47.83;27.58;;;;;;;10.85;56.67;99558.09;5050705;28;20421;-42
2022/12/24 10:34:21;;;;;;;47.90;28.08;;;;;;;11.19;54.55;99548.13;5051642;28;20029;-42
2022/12/24 10:36:46;;;;;;;47.25;27.02;;;;;;;11.08;54.41;99550.44;5051055;28;20021;-43
2022/12/24 10:39:24;;;;;;;43.50;26.83;;;;;;;10.69;56.31;99554.06;5069712;28;20469;-42
2022/12/24 10:41:54;;;;;;;46.25;25.55;;;;;;;10.47;57.21;99556.13;5070892;28;20051;-42
2022/12/24 10:44:23;;;;;;;43.65;25.75;;;;;;;10.69;56.44;99546.88;5071256;28;20039;-43
2022/12/24 10:46:49;;;;;;;49.17;24.95;;;;;;;10.81;56.56;99538.25;5070269;28;20537;-43
2022/12/24 10:49:55;;;;;;;41.83;24.42;;;;;;;10.73;56.26;99549.94;5070321;28;20078;-42
2022/12/24 10:52:26;;;;;;;42.13;24.25;;;;;;;10.81;56.24;99552.38;5066508;28;20036;-42
2022/12/24 10:55:11;;;;;;;38.65;23.05;;;;;;;10.73;56.48;99547.28;5071261;28;20111;-43
2022/12/24 10:57:39;;;;;;;35.65;21.25;;;;;;;10.81;55.83;99547.03;5070322;28;20451;-43
2022/12/24 11:00:06;;;;;;;36.13;21.30;;;;;;;10.47;57.30;99546.34;5070688;28;20028;-43
2022/12/24 11:02:36;;;;;;;36.83;22.42;;;;;;;10.59;56.91;99543.03;5069354;28;20020;-36
2022/12/24 11:05:06;;;;;;;39.25;22.77;;;;;;;10.46;57.67;99536.69;5071041;28;20089;-36
2022/12/24 11:07:31;;;;;;;39.70;23.60;;;;;;;10.71;56.78;99528.06;5070194;28;20036;-37
2022/12/24 11:10:00;;;;;;;49.58;26.92;;;;;;;10.94;56.32;99538.19;5070271;28;20038;-35
2022/12/24 11:12:29;;;;;;;43.95;27.40;;;;;;;11.03;56.61;99546.78;5070017;28;20032;-36
2022/12/24 11:15:17;;;;;;;46.72;25.65;;;;;;;10.86;57.39;99538.44;5064653;28;20090;-36
2022/12/24 11:18:11;;;;;;;50.42;26.23;;;;;;;11.02;56.70;99542.47;5050583;28;20041;-36
2022/12/24 11:20:37;;;;;;;47.45;26.45;;;;;;;11.35;54.41;99539.66;5061450;28;20071;-36
2022/12/24 11:23:03;;;;;;;45.42;25.30;;;;;;;11.13;55.34;99539.16;5062098;28;20067;-36
2022/12/24 11:25:31;;;;;;;48.42;26.52;;;;;;;11.20;55.29;99536.47;5069484;28;20143;-36
2022/12/24 11:28:10;;;;;;;46.22;25.42;;;;;;;11.08;56.56;99537.13;5069485;28;20028;-36
2022/12/24 11:30:36;;;;;;;39.58;24.38;;;;;;;11.18;55.62;99526.03;5068445;28;20032;-36
2022/12/24 11:33:04;;;;;;;42.38;25.70;;;;;;;11.53;56.00;99522.94;5070285;28;20402;-36
2022/12/24 11:35:32;;;;;;;44.75;26.08;;;;;;;11.90;54.89;99526.63;5069318;28;20545;-36
2022/12/24 11:38:00;;;;;;;41.17;25.05;;;;;;;11.61;56.29;99521.88;5069591;28;20024;-43
2022/12/24 11:40:41;;;;;;;42.58;25.17;;;;;;;11.31;56.50;99509.16;5070300;28;20554;-43
2022/12/24 11:43:14;;;;;;;43.80;25.80;;;;;;;11.03;56.35;99490.88;5070046;28;20443;-42
2022/12/24 11:45:50;;;;;;;42.85;24.30;;;;;;;11.07;58.03;99518.69;5070146;28;20100;-43